createdAt,value
2019-03-20T00:01:59.372Z,169.63
2019-03-20T00:04:31.520Z,150.40
2019-03-20T00:07:03.364Z,162.47
2019-03-20T00:09:35.167Z,162.33
2019-03-20T00:12:07.062Z,182.73
2019-03-20T00:14:38.840Z,193.53
2019-03-20T00:17:10.529Z,166.27
2019-03-20T00:19:42.184Z,184.83
2019-03-20T00:22:13.883Z,176.37
2019-03-20T00:24:45.670Z,169.47
2019-03-20T00:27:17.342Z,137.47
2019-03-20T00:29:49.033Z,146.87
2019-03-20T00:32:20.926Z,129.77
2019-03-20T00:35:00.503Z,119.17
2019-03-20T00:37:26.183Z,209.07
2019-03-20T00:39:58.977Z,164.83
2019-03-20T00:42:30.656Z,146.43
2019-03-20T00:45:02.330Z,154.97
2019-03-20T00:47:34.264Z,160.07
2019-03-20T00:50:06.628Z,149.00
2019-03-20T00:52:38.238Z,150.87
2019-03-20T00:55:10.073Z,153.63
2019-03-20T00:57:41.749Z,157.50
2019-03-20T01:00:16.057Z,182.10
2019-03-20T01:02:47.723Z,177.53
2019-03-20T01:05:19.405Z,121.80
2019-03-20T01:07:51.012Z,132.60
2019-03-20T01:10:22.642Z,107.33
2019-03-20T01:12:54.244Z,129.93
2019-03-20T01:15:26.002Z,129.27
2019-03-20T01:17:57.613Z,125.67
2019-03-20T01:20:29.293Z,135.50
2019-03-20T01:23:01.333Z,122.17
2019-03-20T01:25:35.087Z,135.90
2019-03-20T01:28:06.427Z,120.57
2019-03-20T01:30:39.251Z,124.93
2019-03-20T01:33:11.799Z,124.33
2019-03-20T01:35:43.525Z,150.07
2019-03-20T01:38:15.233Z,142.93
2019-03-20T01:40:46.840Z,124.57
2019-03-20T01:43:18.453Z,128.43
2019-03-20T01:45:50.128Z,120.23
2019-03-20T01:48:21.806Z,108.60
2019-03-20T01:50:53.519Z,127.23
2019-03-20T01:53:25.204Z,137.47
2019-03-20T01:55:56.878Z,107.17
2019-03-20T01:58:28.574Z,99.97
2019-03-20T02:01:00.265Z,102.07
2019-03-20T02:03:32.548Z,78.83
2019-03-20T02:06:04.528Z,95.20
2019-03-20T02:08:36.188Z,83.73
2019-03-20T02:11:08.857Z,86.90
2019-03-20T02:13:41.442Z,95.60
2019-03-20T02:16:13.121Z,104.90
2019-03-20T02:18:44.795Z,132.47
2019-03-20T02:21:16.474Z,93.60
2019-03-20T02:23:48.169Z,74.37
2019-03-20T02:26:19.863Z,62.47
2019-03-20T02:28:51.471Z,71.23
2019-03-20T02:31:23.161Z,73.20
2019-03-20T02:33:54.830Z,71.47
2019-03-20T02:36:26.503Z,75.67
2019-03-20T02:38:58.121Z,73.90
2019-03-20T02:41:29.757Z,72.83
2019-03-20T02:44:01.761Z,72.67
2019-03-20T02:46:33.612Z,89.60
2019-03-20T02:49:05.413Z,77.27
2019-03-20T02:51:37.283Z,79.97
2019-03-20T02:54:08.949Z,78.57
2019-03-20T02:56:40.603Z,82.10
2019-03-20T02:59:12.148Z,73.87
2019-03-20T03:01:43.634Z,84.30
2019-03-20T03:04:15.169Z,62.67
2019-03-20T03:06:46.740Z,72.97
2019-03-20T03:09:18.362Z,76.00
2019-03-20T03:11:49.925Z,68.83
2019-03-20T03:14:21.494Z,85.17
2019-03-20T03:16:53.197Z,87.10
2019-03-20T03:19:24.755Z,98.87
2019-03-20T03:21:56.340Z,76.43
2019-03-20T03:24:27.963Z,96.60
2019-03-20T03:26:59.514Z,97.90
2019-03-20T03:29:31.325Z,85.30
2019-03-20T03:32:02.819Z,77.77
2019-03-20T03:34:34.438Z,86.73
2019-03-20T03:37:05.990Z,87.30
2019-03-20T03:39:37.597Z,67.97
2019-03-20T03:42:09.185Z,71.93
2019-03-20T03:44:40.801Z,67.37
2019-03-20T03:47:12.430Z,69.23
2019-03-20T03:49:44.057Z,65.83
2019-03-20T03:52:15.626Z,70.50
2019-03-20T03:54:47.295Z,59.30
2019-03-20T03:57:18.851Z,64.67
2019-03-20T03:59:50.456Z,80.80
2019-03-20T04:02:22.081Z,64.37
2019-03-20T04:04:53.645Z,66.17
2019-03-20T04:07:25.422Z,66.67
2019-03-20T04:09:57.100Z,61.87
2019-03-20T04:12:28.795Z,64.73
2019-03-20T04:15:00.676Z,75.63
2019-03-20T04:17:33.554Z,68.13
2019-03-20T04:20:05.822Z,73.17
2019-03-20T04:22:37.529Z,62.10
2019-03-20T04:25:09.320Z,66.77
2019-03-20T04:27:41.141Z,61.50
2019-03-20T04:30:12.864Z,61.47
2019-03-20T04:32:44.614Z,107.80
2019-03-20T04:35:16.306Z,103.90
2019-03-20T04:37:48.090Z,100.17
2019-03-20T04:40:19.775Z,62.47
2019-03-20T04:42:51.448Z,66.77
2019-03-20T04:45:23.130Z,63.20
2019-03-20T04:47:54.800Z,59.73
2019-03-20T04:50:26.409Z,69.67
2019-03-20T04:52:58.016Z,63.50
2019-03-20T04:55:29.708Z,74.33
2019-03-20T04:58:01.720Z,79.17
2019-03-20T05:00:33.532Z,65.87
2019-03-20T05:03:05.438Z,73.50
2019-03-20T05:05:37.316Z,84.97
2019-03-20T05:08:09.089Z,89.47
2019-03-20T05:10:40.858Z,89.60
2019-03-20T05:13:12.538Z,83.90
2019-03-20T05:15:44.227Z,75.63
2019-03-20T05:18:15.882Z,72.07
2019-03-20T05:20:47.546Z,58.80
2019-03-20T05:23:19.141Z,53.47
2019-03-20T05:25:50.815Z,60.27
2019-03-20T05:28:22.484Z,62.27
2019-03-20T05:30:54.147Z,54.03
2019-03-20T05:33:25.821Z,63.47
2019-03-20T05:35:57.430Z,65.70
2019-03-20T05:38:29.102Z,93.60
2019-03-20T05:41:00.765Z,96.43
2019-03-20T05:43:32.629Z,83.90
2019-03-20T05:46:04.537Z,80.47
2019-03-20T05:48:36.205Z,82.67
2019-03-20T05:51:10.602Z,83.13
2019-03-20T05:53:42.289Z,71.73
2019-03-20T05:56:13.953Z,63.33
2019-03-20T05:58:46.642Z,59.97
2019-03-20T06:01:18.330Z,50.23
2019-03-20T06:03:50.006Z,45.07
2019-03-20T06:06:21.684Z,44.57
2019-03-20T06:08:53.453Z,49.77
2019-03-20T06:11:25.225Z,44.97
2019-03-20T06:13:58.330Z,56.33
2019-03-20T06:16:30.019Z,44.77
2019-03-20T06:19:01.817Z,47.00
2019-03-20T06:21:33.537Z,38.83
2019-03-20T06:24:05.391Z,42.90
2019-03-20T06:26:37.312Z,37.17
2019-03-20T06:29:09.008Z,51.30
2019-03-20T06:31:40.686Z,39.97
2019-03-20T06:34:12.328Z,39.03
2019-03-20T06:36:44.035Z,37.17
2019-03-20T06:39:15.745Z,42.03
2019-03-20T06:41:48.097Z,36.10
2019-03-20T06:44:21.745Z,43.77
2019-03-20T06:46:53.542Z,44.70
2019-03-20T06:49:25.252Z,42.97
2019-03-20T06:51:56.913Z,41.47
2019-03-20T06:54:28.609Z,39.60
2019-03-20T06:57:00.279Z,49.43
2019-03-20T06:59:57.053Z,44.30
2019-03-20T07:02:28.683Z,45.10
2019-03-20T07:05:31.964Z,34.37
2019-03-20T07:08:03.729Z,31.87
2019-03-20T07:11:18.172Z,39.40
2019-03-20T07:13:50.748Z,34.87
2019-03-20T07:16:22.539Z,38.67
2019-03-20T07:18:54.139Z,37.67
2019-03-20T07:21:25.811Z,32.70
2019-03-20T07:23:57.499Z,39.63
2019-03-20T07:26:29.205Z,35.83
2019-03-20T07:29:00.897Z,37.50
2019-03-20T07:31:32.643Z,40.53
2019-03-20T07:34:04.447Z,35.47
2019-03-20T07:36:37.486Z,31.97
2019-03-20T07:39:10.113Z,42.70
2019-03-20T07:41:41.789Z,39.20
2019-03-20T07:44:13.477Z,46.07
2019-03-20T07:46:45.155Z,37.37
2019-03-20T07:49:16.834Z,28.03
2019-03-20T07:51:48.505Z,37.17
2019-03-20T07:54:20.171Z,49.47
2019-03-20T07:56:51.801Z,49.20
2019-03-20T07:59:23.475Z,40.40
2019-03-20T08:01:55.144Z,27.97
2019-03-20T08:04:26.824Z,29.60
2019-03-20T08:06:58.496Z,35.03
2019-03-20T08:09:30.210Z,40.00
2019-03-20T08:12:02.043Z,36.00
2019-03-20T08:14:33.715Z,29.73
2019-03-20T08:17:05.434Z,36.53
2019-03-20T08:19:37.112Z,26.97
2019-03-20T08:22:09.060Z,24.37
2019-03-20T08:24:41.447Z,23.93
2019-03-20T08:27:13.195Z,31.23
2019-03-20T08:29:44.960Z,27.47
2019-03-20T08:32:16.701Z,27.43
2019-03-20T08:34:48.368Z,26.37
2019-03-20T08:37:20.030Z,28.90
2019-03-20T08:39:51.701Z,24.03
2019-03-20T08:42:23.380Z,25.73
2019-03-20T08:44:55.008Z,32.97
2019-03-20T08:47:26.607Z,25.70
2019-03-20T08:49:58.383Z,28.33
2019-03-20T08:52:30.055Z,30.50
2019-03-20T08:55:01.828Z,25.37
2019-03-20T08:57:34.618Z,24.40
2019-03-20T09:00:07.842Z,28.97
2019-03-20T09:02:39.611Z,26.03
2019-03-20T09:05:11.350Z,18.43
2019-03-20T09:07:47.203Z,22.00
2019-03-20T09:10:20.038Z,18.50
2019-03-20T09:12:51.970Z,25.27
2019-03-20T09:15:31.319Z,29.53
2019-03-20T09:18:06.081Z,18.97
2019-03-20T09:20:39.063Z,22.90
2019-03-20T09:23:11.915Z,14.13
2019-03-20T09:25:45.706Z,21.23
2019-03-20T09:28:21.833Z,17.80
2019-03-20T09:30:54.650Z,19.47
2019-03-20T09:33:26.679Z,20.83
2019-03-20T09:35:58.499Z,13.20
2019-03-20T09:38:30.127Z,16.73
2019-03-20T09:41:02.081Z,17.63
2019-03-20T09:43:34.006Z,16.03
2019-03-20T09:46:05.794Z,16.87
2019-03-20T09:48:37.475Z,16.70
2019-03-20T09:51:09.152Z,19.37
2019-03-20T09:53:46.838Z,15.20
2019-03-20T09:56:19.784Z,8.60
2019-03-20T09:58:51.501Z,11.37
2019-03-20T10:01:23.375Z,16.53
2019-03-20T10:03:55.066Z,15.47
2019-03-20T10:06:26.727Z,16.60
2019-03-20T10:08:58.423Z,7.53
2019-03-20T10:11:30.148Z,9.40
2019-03-20T10:14:01.992Z,9.73
2019-03-20T10:16:34.012Z,8.10
2019-03-20T10:19:05.735Z,12.73
2019-03-20T10:21:37.528Z,14.37
2019-03-20T10:24:09.208Z,13.33
2019-03-20T10:26:40.856Z,17.97
2019-03-20T10:29:12.588Z,13.43
2019-03-20T10:31:44.252Z,17.17
2019-03-20T10:34:16.035Z,12.60
2019-03-20T10:36:48.715Z,11.73
2019-03-20T10:39:20.768Z,8.17
2019-03-20T10:41:52.743Z,9.30
2019-03-20T10:44:24.420Z,9.17
2019-03-20T10:46:56.199Z,5.73
2019-03-20T10:49:27.887Z,6.90
2019-03-20T10:51:59.603Z,7.80
2019-03-20T10:54:32.927Z,6.10
2019-03-20T10:57:05.064Z,5.67
2019-03-20T10:59:36.751Z,7.47
2019-03-20T11:02:08.452Z,8.17
2019-03-20T11:04:43.862Z,7.63
2019-03-20T11:07:47.778Z,6.33
2019-03-20T11:11:01.065Z,7.50
2019-03-20T11:13:55.179Z,5.47
2019-03-20T11:16:56.216Z,9.07
2019-03-20T11:20:12.415Z,10.40
2019-03-20T11:23:16.810Z,12.63
2019-03-20T11:26:36.424Z,8.13
2019-03-20T11:28:54.947Z,7.80
2019-03-20T11:31:26.622Z,12.57
2019-03-20T11:33:58.408Z,8.10
2019-03-20T11:36:30.075Z,14.90
2019-03-20T11:39:01.756Z,8.10
2019-03-20T11:41:35.298Z,9.17
2019-03-20T11:44:06.983Z,8.03
2019-03-20T11:46:38.660Z,8.57
2019-03-20T11:49:10.269Z,14.67
2019-03-20T11:51:41.938Z,23.90
2019-03-20T11:54:13.618Z,10.87
2019-03-20T11:56:45.310Z,50.00
2019-03-20T11:59:18.015Z,13.67
2019-03-20T12:01:49.700Z,7.97
2019-03-20T12:04:21.335Z,12.27
2019-03-20T12:06:53.022Z,10.20
2019-03-20T12:09:24.707Z,11.83
2019-03-20T12:11:56.317Z,9.57
2019-03-20T12:14:27.994Z,10.43
2019-03-20T12:16:59.673Z,10.90
2019-03-20T12:19:31.556Z,17.50
2019-03-20T12:22:04.237Z,15.40
2019-03-20T12:24:35.844Z,15.47
2019-03-20T12:27:14.993Z,16.47
2019-03-20T12:29:40.956Z,16.97
2019-03-20T12:32:12.585Z,12.00
2019-03-20T12:34:44.195Z,16.37
2019-03-20T12:37:16.893Z,8.33
2019-03-20T12:39:53.034Z,18.87
2019-03-20T12:42:21.928Z,22.40
2019-03-20T12:44:53.690Z,33.50
2019-03-20T12:47:25.359Z,17.10
2019-03-20T12:49:57.077Z,32.40
2019-03-20T12:52:28.840Z,10.10
2019-03-20T12:55:00.516Z,31.07
2019-03-20T12:57:32.508Z,7.73
2019-03-20T13:00:05.096Z,37.57
2019-03-20T13:02:36.933Z,11.43
2019-03-20T13:05:09.331Z,38.87
2019-03-20T13:07:41.001Z,14.90
2019-03-20T13:10:16.922Z,12.47
2019-03-20T13:12:48.642Z,15.57
2019-03-20T13:15:21.582Z,6.43
2019-03-20T13:17:53.293Z,42.53
2019-03-20T13:20:24.984Z,24.80
2019-03-20T13:23:02.234Z,42.17
2019-03-20T13:25:35.247Z,15.10
2019-03-20T13:28:06.886Z,12.43
2019-03-20T13:30:44.463Z,24.60
2019-03-20T13:33:25.292Z,26.47
2019-03-20T13:35:49.447Z,20.47
2019-03-20T13:38:21.135Z,31.73
2019-03-20T13:40:52.815Z,8.43
2019-03-20T13:43:24.496Z,13.03
2019-03-20T13:45:56.095Z,10.33
2019-03-20T13:49:01.744Z,14.53
2019-03-20T13:52:13.465Z,15.17
2019-03-20T13:55:10.908Z,11.03
2019-03-20T13:58:11.849Z,13.93
2019-03-20T14:00:50.866Z,15.93
2019-03-20T14:03:24.428Z,10.93
2019-03-20T14:05:57.554Z,8.67
2019-03-20T14:08:29.481Z,11.63
2019-03-20T14:11:01.215Z,12.90
2019-03-20T14:13:33.173Z,9.20
2019-03-20T14:16:04.797Z,11.93
2019-03-20T14:18:36.440Z,8.87
2019-03-20T14:21:08.269Z,19.07
2019-03-20T14:23:39.837Z,9.40
2019-03-20T14:26:11.417Z,10.03
2019-03-20T14:28:43.072Z,10.60
2019-03-20T14:31:14.702Z,12.67
2019-03-20T14:33:46.333Z,9.77
2019-03-20T14:36:17.905Z,23.77
2019-03-20T14:38:50.896Z,15.53
2019-03-20T14:41:22.884Z,19.67
2019-03-20T14:43:54.515Z,10.43
2019-03-20T14:46:26.061Z,8.47
2019-03-20T14:48:57.702Z,15.60
2019-03-20T14:51:29.564Z,9.73
2019-03-20T14:54:01.181Z,17.17
2019-03-20T14:56:32.855Z,14.87
2019-03-20T14:59:04.557Z,13.27
2019-03-20T15:01:36.160Z,12.87
2019-03-20T15:04:09.283Z,28.37
2019-03-20T15:06:41.638Z,14.43
2019-03-20T15:09:13.305Z,30.63
2019-03-20T15:11:44.967Z,24.57
2019-03-20T15:14:16.643Z,12.30
2019-03-20T15:16:48.328Z,8.50
2019-03-20T15:19:19.998Z,9.23
2019-03-20T15:21:51.679Z,6.00
2019-03-20T15:24:23.279Z,9.83
2019-03-20T15:26:55.463Z,8.97
2019-03-20T15:29:27.133Z,6.20
2019-03-20T15:31:58.807Z,17.90
2019-03-20T15:34:30.496Z,51.70
2019-03-20T15:37:03.214Z,23.23
2019-03-20T15:39:35.212Z,25.27
2019-03-20T15:42:06.893Z,18.20
2019-03-20T15:44:38.754Z,23.70
2019-03-20T15:47:10.441Z,22.57
2019-03-20T15:49:42.154Z,27.60
2019-03-20T15:52:13.916Z,46.27
2019-03-20T15:54:45.607Z,22.23
2019-03-20T15:57:17.317Z,20.43
2019-03-20T15:59:49.196Z,7.80
2019-03-20T16:02:20.977Z,9.90
2019-03-20T16:04:52.778Z,11.40
2019-03-20T16:07:24.508Z,41.40
2019-03-20T16:09:56.279Z,12.50
2019-03-20T16:12:28.063Z,20.13
2019-03-20T16:14:59.891Z,52.77
2019-03-20T16:17:31.662Z,109.10
2019-03-20T16:20:05.548Z,30.80
2019-03-20T16:22:38.479Z,23.77
2019-03-20T16:25:10.724Z,174.47
2019-03-20T16:27:42.546Z,12.60
2019-03-20T16:30:18.960Z,28.73
2019-03-20T16:32:50.802Z,20.40
2019-03-20T16:35:22.718Z,21.40
2019-03-20T16:37:56.064Z,17.80
2019-03-20T16:40:28.287Z,27.13
2019-03-20T16:43:00.576Z,30.87
2019-03-20T16:45:34.134Z,35.20
2019-03-20T16:48:06.142Z,26.23
2019-03-20T16:50:37.824Z,18.60
2019-03-20T16:53:09.421Z,14.23
2019-03-20T16:55:41.104Z,14.43
2019-03-20T16:58:12.874Z,17.43
2019-03-20T17:00:44.556Z,50.70
2019-03-20T17:03:16.260Z,73.20
2019-03-20T17:05:47.897Z,45.43
2019-03-20T17:08:20.608Z,36.67
2019-03-20T17:10:52.302Z,44.43
2019-03-20T17:13:23.987Z,27.70
2019-03-20T17:15:55.676Z,28.43
2019-03-20T17:18:27.357Z,23.87
2019-03-20T17:20:59.047Z,39.10
2019-03-20T17:23:30.742Z,92.10
2019-03-20T17:26:02.611Z,70.23
2019-03-20T17:28:34.622Z,71.27
2019-03-20T17:31:06.727Z,62.60
2019-03-20T17:33:38.418Z,105.87
2019-03-20T17:36:10.105Z,102.47
2019-03-20T17:38:41.797Z,84.90
2019-03-20T17:41:13.489Z,105.03
2019-03-20T17:43:45.169Z,91.17
2019-03-20T17:46:17.499Z,114.83
2019-03-20T17:48:49.254Z,126.77
2019-03-20T17:51:20.933Z,99.80
2019-03-20T17:53:53.660Z,119.63
2019-03-20T17:56:25.359Z,224.70
2019-03-20T17:58:56.981Z,365.33
2019-03-20T18:01:29.021Z,332.87
2019-03-20T18:04:00.754Z,477.23
2019-03-20T18:06:32.950Z,407.17
2019-03-20T18:09:05.165Z,415.63
2019-03-20T18:11:36.874Z,514.47
2019-03-20T18:14:08.627Z,525.03
2019-03-20T18:16:40.514Z,342.47
2019-03-20T18:19:12.527Z,324.10
2019-03-20T18:21:44.283Z,337.03
2019-03-20T18:24:16.361Z,263.13
2019-03-20T18:26:48.106Z,237.63
2019-03-20T18:29:21.630Z,258.30
2019-03-20T18:31:53.627Z,193.23
2019-03-20T18:34:25.629Z,167.73
2019-03-20T18:37:03.819Z,90.60
2019-03-20T18:39:35.989Z,117.00
2019-03-20T18:42:09.603Z,133.20
2019-03-20T18:44:41.794Z,67.40
2019-03-20T18:47:13.991Z,62.77
2019-03-20T18:49:46.018Z,57.20
2019-03-20T18:52:17.719Z,55.17
2019-03-20T18:54:49.475Z,58.30
2019-03-20T18:57:21.830Z,59.07
2019-03-20T18:59:53.845Z,65.30
2019-03-20T19:02:25.781Z,69.57
2019-03-20T19:04:57.464Z,105.80
2019-03-20T19:07:29.718Z,115.83
2019-03-20T19:10:04.140Z,71.83
2019-03-20T19:12:37.104Z,77.10
2019-03-20T19:15:12.336Z,80.60
2019-03-20T19:17:44.802Z,79.53
2019-03-20T19:20:16.608Z,58.13
2019-03-20T19:22:48.585Z,58.73
2019-03-20T19:25:20.727Z,52.93
2019-03-20T19:27:53.003Z,46.33
2019-03-20T19:30:24.829Z,43.07
2019-03-20T19:32:56.500Z,42.00
2019-03-20T19:35:28.317Z,36.93
2019-03-20T19:38:00.626Z,32.67
2019-03-20T19:40:32.739Z,36.93
2019-03-20T19:43:05.177Z,31.10
2019-03-20T19:45:37.277Z,34.90
2019-03-20T19:48:09.080Z,41.23
2019-03-20T19:50:40.814Z,46.10
2019-03-20T19:53:13.603Z,43.53
2019-03-20T19:55:45.453Z,29.47
2019-03-20T19:58:17.107Z,26.57
2019-03-20T20:00:49.137Z,24.40
2019-03-20T20:03:20.838Z,22.17
2019-03-20T20:05:52.675Z,20.87
2019-03-20T20:08:24.620Z,19.40
2019-03-20T20:10:56.494Z,19.83
2019-03-20T20:13:32.248Z,17.33
2019-03-20T20:16:04.170Z,13.90
2019-03-20T20:18:35.962Z,17.03
2019-03-20T20:21:08.020Z,16.67
2019-03-20T20:23:39.793Z,15.00
2019-03-20T20:26:12.689Z,18.27
2019-03-20T20:28:45.559Z,79.20
2019-03-20T20:31:17.653Z,23.30
2019-03-20T20:33:49.442Z,18.83
2019-03-20T20:36:21.594Z,23.10
2019-03-20T20:38:53.414Z,22.63
2019-03-20T20:41:25.102Z,20.90
2019-03-20T20:43:56.799Z,20.33
2019-03-20T20:46:28.519Z,25.13
2019-03-20T20:49:00.203Z,21.07
2019-03-20T20:51:32.049Z,19.10
2019-03-20T20:54:03.847Z,20.57
2019-03-20T20:56:35.534Z,21.07
2019-03-20T20:59:07.249Z,17.13
2019-03-20T21:01:39.018Z,17.33
2019-03-20T21:04:10.686Z,15.23
2019-03-20T21:06:42.362Z,16.30
2019-03-20T21:09:14.040Z,14.60
2019-03-20T21:11:45.700Z,16.67
2019-03-20T21:14:17.394Z,16.50
2019-03-20T21:16:49.653Z,16.90
2019-03-20T21:19:40.774Z,16.43
2019-03-20T21:22:42.816Z,17.90
2019-03-20T21:25:19.244Z,18.63
2019-03-20T21:28:33.219Z,23.10
2019-03-20T21:31:20.795Z,29.43
2019-03-20T21:34:31.784Z,31.90
2019-03-20T21:37:39.063Z,25.10
2019-03-20T21:40:12.487Z,19.23
2019-03-20T21:43:19.720Z,27.00
2019-03-20T21:46:36.499Z,24.83
2019-03-20T21:49:08.715Z,19.73
2019-03-20T21:51:40.927Z,19.87
2019-03-20T21:55:01.556Z,16.73
2019-03-20T21:57:47.056Z,14.07
2019-03-20T22:00:50.735Z,17.30
2019-03-20T22:03:22.969Z,19.00
2019-03-20T22:06:44.448Z,20.93
2019-03-20T22:09:47.664Z,30.43
2019-03-20T22:12:29.149Z,21.53
2019-03-20T22:15:26.147Z,22.93
2019-03-20T22:18:49.880Z,26.10
2019-03-20T22:21:29.910Z,20.70
2019-03-20T22:24:18.023Z,28.77
2019-03-20T22:27:39.072Z,17.77
2019-03-20T22:30:11.283Z,21.70
2019-03-20T22:33:19.599Z,47.00
2019-03-20T22:36:01.747Z,33.70
2019-03-20T22:39:29.807Z,33.37
2019-03-20T22:42:32.497Z,26.37
2019-03-20T22:45:22.729Z,26.67
2019-03-20T22:48:38.242Z,21.17
2019-03-20T22:51:42.643Z,19.90
2019-03-20T22:54:58.377Z,18.20
2019-03-20T22:57:59.573Z,21.97
2019-03-20T23:00:33.456Z,17.17
2019-03-20T23:03:13.806Z,19.20
2019-03-20T23:05:46.007Z,16.63
2019-03-20T23:08:18.222Z,18.20
2019-03-20T23:10:51.408Z,17.33
2019-03-20T23:13:23.616Z,15.13
2019-03-20T23:15:55.809Z,19.87
2019-03-20T23:18:28.019Z,18.47
2019-03-20T23:21:00.212Z,18.70
2019-03-20T23:23:33.440Z,22.60
2019-03-20T23:26:05.647Z,19.80
2019-03-20T23:28:38.077Z,22.17
2019-03-20T23:31:10.303Z,24.10
2019-03-20T23:33:42.490Z,18.40
2019-03-20T23:36:14.693Z,26.83
2019-03-20T23:38:46.923Z,23.63
2019-03-20T23:41:19.124Z,20.57
2019-03-20T23:43:53.138Z,23.53
2019-03-20T23:46:25.249Z,22.43
2019-03-20T23:49:04.142Z,22.93
2019-03-20T23:51:36.481Z,18.23
2019-03-20T23:54:08.827Z,24.30
2019-03-20T23:56:41.127Z,20.50
2019-03-20T23:59:13.332Z,20.93
